Pullman, Washington
Current Conditions -  °F | °C
As of 2:17 PM on Tuesday 25 Nov 2014 (Local Time) from KPUW Reporting Station
Light Rain Light Rain  
Wind Chill: 36°   Ceiling: 2500
Heat Index: 41°   Visibility: 4mi
Dew Point: 38°   Wind: 7mph
Humidity: 89%   Direction: 360°N
Pressure: 30.17"   Gusts: NA
Location:  46.73°N, 117.18°W
Report Text: KPUW 252217Z AUTO 36006KT 4SM -RA BR BKN025 OVC034 05/03 A3017 RMK AO2 P0002 T00500033
Loading
Personal Weather Stations






























Interactive Weather Map New forecast layout! Learn more

10-Day Weather Forecast

Advertisements
Track Severe Weather on mobile